Sand Creek, Wisconsin
Current Conditions -  °F | °C
As of 6:35 PM on Monday 22 Dec 2014 (Local Time) from KY23 Reporting Station
Overcast Overcast  
Wind Chill: 28°   Ceiling: 1500
Heat Index: 35°   Visibility: 7mi
Dew Point: 32°   Wind: 8mph
Humidity: 89%   Direction: 70°ENE
Pressure: 29.67"   Gusts: NA
Location:  45.17°N, 91.69°W
Report Text: KY23 230035Z AUTO 07007KT 7SM OVC015 02/00 A2967 RMK AO2 T00160000
Loading
Personal Weather Stations






























Interactive Weather Map New forecast layout! Learn more

10-Day Weather Forecast

Advertisements
Track Severe Weather on mobile